createdAt,value
2019-02-04T00:00:17.919Z,-0.10
2019-02-04T00:03:02.028Z,-0.10
2019-02-04T00:05:51.015Z,-0.10
2019-02-04T00:08:39.962Z,-0.10
2019-02-04T00:11:48.242Z,-0.10
2019-02-04T00:14:37.206Z,-0.20
2019-02-04T00:17:26.444Z,-0.20
2019-02-04T00:20:36.615Z,-0.20
2019-02-04T00:23:44.894Z,-0.20
2019-02-04T00:26:33.806Z,-0.20
2019-02-04T00:29:43.804Z,-0.20
2019-02-04T00:32:32.721Z,-0.20
2019-02-04T00:35:21.755Z,-0.20
2019-02-04T00:38:23.331Z,-0.10
2019-02-04T00:41:12.281Z,-0.20
2019-02-04T00:44:01.263Z,-0.20
2019-02-04T00:46:52.308Z,-0.30
2019-02-04T00:50:00.321Z,-0.30
2019-02-04T00:53:10.172Z,-0.30
2019-02-04T00:56:18.580Z,-0.20
2019-02-04T00:59:07.479Z,-0.20
2019-02-04T01:02:15.849Z,-0.30
2019-02-04T01:05:25.451Z,-0.20
2019-02-04T01:08:33.726Z,-0.30
2019-02-04T01:11:22.687Z,-0.30
2019-02-04T01:14:11.667Z,-0.20
2019-02-04T01:17:03.491Z,-0.20
2019-02-04T01:20:31.312Z,-0.20
2019-02-04T01:23:20.232Z,-0.20
2019-02-04T01:26:09.188Z,-0.30
2019-02-04T01:29:19.152Z,-0.30
2019-02-04T01:32:09.657Z,-0.30
2019-02-04T01:34:58.642Z,-0.30
2019-02-04T01:37:47.642Z,-0.30
2019-02-04T01:40:29.853Z,-0.30
2019-02-04T01:43:18.745Z,-0.10
2019-02-04T01:46:28.803Z,-0.10
2019-02-04T01:49:19.303Z,0.00
2019-02-04T01:52:09.939Z,0.10
2019-02-04T01:54:58.788Z,0.10
2019-02-04T01:58:08.378Z,0.20
2019-02-04T02:01:18.395Z,0.30
2019-02-04T02:07:06.911Z,0.30
2019-02-04T02:09:55.798Z,0.30
2019-02-04T02:12:44.868Z,0.30
2019-02-04T02:15:33.776Z,0.30
2019-02-04T02:18:22.678Z,0.40
2019-02-04T02:21:11.587Z,0.40
2019-02-04T02:24:19.895Z,0.40
2019-02-04T02:27:08.896Z,0.50
2019-02-04T02:29:59.458Z,0.50
2019-02-04T02:32:48.387Z,0.50
2019-02-04T02:35:37.338Z,0.50
2019-02-04T02:38:27.899Z,0.50
2019-02-04T02:41:30.229Z,0.50
2019-02-04T02:44:19.231Z,0.50
2019-02-04T02:47:38.164Z,0.40
2019-02-04T02:50:37.559Z,0.30
2019-02-04T02:53:26.531Z,0.20
2019-02-04T02:56:34.823Z,0.20
2019-02-04T02:59:44.817Z,0.10
2019-02-04T03:02:33.818Z,0.10
2019-02-04T03:05:42.136Z,0.00
2019-02-04T03:08:31.075Z,0.00
2019-02-04T03:11:19.953Z,-0.10
2019-02-04T03:14:28.248Z,0.00
2019-02-04T03:17:36.590Z,-0.10
2019-02-04T03:20:25.530Z,-0.20
2019-02-04T03:23:14.367Z,0.00
2019-02-04T03:26:03.302Z,0.00
2019-02-04T03:29:11.640Z,0.00
2019-02-04T03:32:00.656Z,-0.10
2019-02-04T03:34:49.661Z,-0.10
2019-02-04T03:37:38.576Z,-0.10
2019-02-04T03:40:22.199Z,-0.10
2019-02-04T03:43:11.251Z,-0.10
2019-02-04T03:46:00.210Z,-0.10
2019-02-04T03:48:49.253Z,-0.10
2019-02-04T03:51:39.798Z,-0.10
2019-02-04T03:54:28.715Z,-0.10
2019-02-04T03:57:17.857Z,-0.10
2019-02-04T04:00:48.451Z,-0.10
2019-02-04T04:03:56.726Z,-0.10
2019-02-04T04:06:45.599Z,-0.20
2019-02-04T04:09:34.521Z,-0.20
2019-02-04T04:12:23.412Z,-0.20
2019-02-04T04:15:33.040Z,-0.20
2019-02-04T04:18:43.094Z,-0.20
2019-02-04T04:24:34.057Z,-0.10
2019-02-04T04:27:43.391Z,-0.20
2019-02-04T04:30:26.981Z,-0.10
2019-02-04T04:33:16.394Z,-0.10
2019-02-04T04:36:24.691Z,-0.10
2019-02-04T04:39:06.841Z,0.00
2019-02-04T04:41:55.710Z,0.00
2019-02-04T04:45:26.385Z,-0.10
2019-02-04T04:48:26.036Z,-0.10
2019-02-04T04:51:27.983Z,-0.10
2019-02-04T04:54:16.939Z,-0.20
2019-02-04T04:57:25.215Z,-0.20
2019-02-04T05:00:33.584Z,-0.30
2019-02-04T05:03:24.163Z,-0.20
2019-02-04T05:06:13.006Z,-0.30
2019-02-04T05:09:21.367Z,-0.20
2019-02-04T05:12:31.323Z,-0.20
2019-02-04T05:15:40.915Z,-0.20
2019-02-04T05:18:38.267Z,-0.20
2019-02-04T05:21:41.387Z,-0.10
2019-02-04T05:24:49.740Z,-0.10
2019-02-04T05:27:38.707Z,-0.20
2019-02-04T05:30:48.704Z,-0.10
2019-02-04T05:33:39.212Z,-0.10
2019-02-04T05:36:28.142Z,-0.20
2019-02-04T05:39:10.862Z,-0.20
2019-02-04T05:42:00.128Z,-0.20
2019-02-04T05:44:49.010Z,-0.20
2019-02-04T05:47:37.935Z,-0.20
2019-02-04T05:50:46.238Z,-0.20
2019-02-04T05:53:35.079Z,-0.10
2019-02-04T05:56:23.947Z,-0.20
2019-02-04T05:59:12.895Z,-0.10
2019-02-04T06:02:01.891Z,-0.10
2019-02-04T06:05:12.332Z,-0.20
2019-02-04T06:08:01.268Z,-0.20
2019-02-04T06:11:09.639Z,-0.20
2019-02-04T06:14:17.916Z,-0.20
2019-02-04T06:17:06.862Z,-0.20
2019-02-04T06:19:55.851Z,-0.20
2019-02-04T06:22:44.714Z,-0.20
2019-02-04T06:25:54.714Z,-0.20
2019-02-04T06:28:43.700Z,-0.20
2019-02-04T06:31:32.714Z,-0.30
2019-02-04T06:34:21.687Z,-0.30
2019-02-04T06:37:10.558Z,-0.40
2019-02-04T06:39:52.602Z,-0.30
2019-02-04T06:42:42.103Z,-0.30
2019-02-04T06:45:31.287Z,-0.30
2019-02-04T06:48:20.296Z,-0.30
2019-02-04T06:51:09.283Z,-0.30
2019-02-04T06:53:58.166Z,-0.30
2019-02-04T06:57:07.799Z,-0.30
2019-02-04T07:00:17.977Z,-0.30
2019-02-04T07:03:08.535Z,-0.20
2019-02-04T07:05:57.458Z,-0.20
2019-02-04T07:08:46.511Z,-0.20
2019-02-04T07:11:54.862Z,-0.10
2019-02-04T07:14:43.719Z,-0.20
2019-02-04T07:17:52.041Z,-0.20
2019-02-04T07:20:42.832Z,-0.10
2019-02-04T07:23:31.699Z,-0.10
2019-02-04T07:26:41.654Z,-0.10
2019-02-04T07:29:30.607Z,0.00
2019-02-04T07:32:21.494Z,0.10
2019-02-04T07:35:32.744Z,0.10
2019-02-04T07:38:21.755Z,0.10
2019-02-04T07:41:04.458Z,0.20
2019-02-04T07:43:53.395Z,0.30
2019-02-04T07:46:42.314Z,0.30
2019-02-04T07:49:50.605Z,0.40
2019-02-04T07:53:00.254Z,0.50
2019-02-04T07:55:49.191Z,0.60
2019-02-04T07:58:38.212Z,0.60
2019-02-04T08:01:46.594Z,0.70
2019-02-04T08:04:35.661Z,0.70
2019-02-04T08:07:24.657Z,0.80
2019-02-04T08:10:14.479Z,1.00
2019-02-04T08:13:03.661Z,1.10
2019-02-04T08:15:52.556Z,1.30
2019-02-04T08:18:41.532Z,1.40
2019-02-04T08:21:30.537Z,1.50
2019-02-04T08:24:38.878Z,1.60
2019-02-04T08:27:28.006Z,1.70
2019-02-04T08:30:38.398Z,1.70
2019-02-04T08:33:46.997Z,1.80
2019-02-04T08:36:44.249Z,1.90
2019-02-04T08:39:40.150Z,1.90
2019-02-04T08:42:29.063Z,2.00
2019-02-04T08:45:37.418Z,2.00
2019-02-04T08:48:40.217Z,2.00
2019-02-04T08:51:36.567Z,2.10
2019-02-04T08:54:25.815Z,2.20
2019-02-04T08:57:14.819Z,2.40
2019-02-04T09:00:27.319Z,2.80
2019-02-04T09:03:16.415Z,3.10
2019-02-04T09:06:24.795Z,3.40
2019-02-04T09:09:13.818Z,3.60
2019-02-04T09:12:23.782Z,3.70
2019-02-04T09:15:32.269Z,4.00
2019-02-04T09:21:26.304Z,4.40
2019-02-04T09:24:15.346Z,4.40
2019-02-04T09:27:25.270Z,4.30
2019-02-04T09:30:34.871Z,4.10
2019-02-04T09:34:02.374Z,4.10
2019-02-04T09:36:51.442Z,4.10
2019-02-04T09:39:54.691Z,4.00
2019-02-04T09:42:43.762Z,4.00
2019-02-04T09:45:32.720Z,4.20
2019-02-04T09:48:21.855Z,4.40
2019-02-04T09:51:31.896Z,4.60
2019-02-04T09:54:20.796Z,4.60
2019-02-04T09:57:21.496Z,4.50
2019-02-04T10:00:40.345Z,4.40
2019-02-04T10:03:29.581Z,4.50
2019-02-04T10:06:18.662Z,4.60
2019-02-04T10:09:07.943Z,4.60
2019-02-04T10:11:57.076Z,4.70
2019-02-04T10:14:45.914Z,4.70
2019-02-04T10:17:55.959Z,4.60
2019-02-04T10:20:45.048Z,4.60
2019-02-04T10:23:54.186Z,4.70
2019-02-04T10:27:04.180Z,4.70
2019-02-04T10:33:22.064Z,4.60
2019-02-04T10:36:11.094Z,4.60
2019-02-04T10:39:00.072Z,4.70
2019-02-04T10:41:44.473Z,4.60
2019-02-04T10:44:53.461Z,4.40
2019-02-04T10:47:42.487Z,4.40
2019-02-04T10:50:52.310Z,4.50
2019-02-04T10:53:41.411Z,4.50
2019-02-04T10:57:05.642Z,4.50
2019-02-04T11:00:01.333Z,4.40
2019-02-04T11:02:50.347Z,4.60
2019-02-04T11:06:00.336Z,4.70
2019-02-04T11:08:49.262Z,4.70
2019-02-04T11:11:38.247Z,4.80
2019-02-04T11:14:27.137Z,4.70
2019-02-04T11:17:16.276Z,4.70
2019-02-04T11:20:57.153Z,4.90
2019-02-04T11:23:55.335Z,4.90
2019-02-04T11:26:44.225Z,5.20
2019-02-04T11:29:33.269Z,5.40
2019-02-04T11:32:22.315Z,5.50
2019-02-04T11:35:11.524Z,5.80
2019-02-04T11:38:00.526Z,5.60
2019-02-04T11:40:45.729Z,5.60
2019-02-04T11:43:33.391Z,5.60
2019-02-04T11:46:22.501Z,5.80
2019-02-04T11:49:30.772Z,5.60
2019-02-04T11:52:39.104Z,5.40
2019-02-04T11:55:47.413Z,5.20
2019-02-04T11:58:36.486Z,5.40
2019-02-04T12:01:25.482Z,5.30
2019-02-04T12:07:34.266Z,5.40
2019-02-04T12:11:01.875Z,5.50
2019-02-04T12:13:50.784Z,5.40
2019-02-04T12:16:39.786Z,5.50
2019-02-04T12:19:28.715Z,5.60
2019-02-04T12:22:37.149Z,5.60
2019-02-04T12:25:45.462Z,5.60
2019-02-04T12:28:35.935Z,5.50
2019-02-04T12:31:44.228Z,5.50
2019-02-04T12:34:52.576Z,5.50
2019-02-04T12:37:41.593Z,5.40
2019-02-04T12:47:33.175Z,5.60
2019-02-04T12:53:29.509Z,5.60
2019-02-04T12:56:12.852Z,5.50
2019-02-04T13:02:52.215Z,5.60
2019-02-04T13:08:57.371Z,5.30
2019-02-04T13:12:09.098Z,5.20
2019-02-04T13:19:27.335Z,5.30
2019-02-04T13:21:57.009Z,5.40
2019-02-04T13:24:26.094Z,5.50
2019-02-04T13:26:54.802Z,5.70
2019-02-04T13:29:23.486Z,5.60
2019-02-04T13:31:52.182Z,5.50
2019-02-04T13:34:21.064Z,5.60
2019-02-04T13:36:49.830Z,5.70
2019-02-04T13:39:18.615Z,5.60
2019-02-04T13:41:47.378Z,5.60
2019-02-04T13:44:16.309Z,5.60
2019-02-04T13:46:46.190Z,5.50
2019-02-04T13:49:15.074Z,5.40
2019-02-04T13:51:43.700Z,5.40
2019-02-04T13:54:12.398Z,5.40
2019-02-04T13:56:41.141Z,5.40
2019-02-04T13:59:09.871Z,5.30
2019-02-04T14:01:38.606Z,5.20
2019-02-04T14:04:07.358Z,5.20
2019-02-04T14:06:35.963Z,5.20
2019-02-04T14:09:06.155Z,5.20
2019-02-04T14:11:34.841Z,5.10
2019-02-04T14:14:03.542Z,5.10
2019-02-04T14:16:32.296Z,5.00
2019-02-04T14:19:01.365Z,5.00
2019-02-04T14:21:30.145Z,4.90
2019-02-04T14:23:58.850Z,4.80
2019-02-04T14:26:28.779Z,4.80
2019-02-04T14:28:57.530Z,4.80
2019-02-04T14:31:26.274Z,4.60
2019-02-04T14:33:57.969Z,4.60
2019-02-04T14:36:25.407Z,4.60
2019-02-04T14:38:54.122Z,4.50
2019-02-04T14:41:22.824Z,4.60
2019-02-04T14:43:51.573Z,4.60
2019-02-04T14:46:28.822Z,4.50
2019-02-04T14:49:08.080Z,4.50
2019-02-04T14:51:41.274Z,4.50
2019-02-04T14:54:37.658Z,4.50
2019-02-04T14:57:01.280Z,4.50
2019-02-04T14:59:30.255Z,4.50
2019-02-04T15:02:16.883Z,4.40
2019-02-04T15:04:50.254Z,4.40
2019-02-04T15:07:35.340Z,4.40
2019-02-04T15:10:23.179Z,4.30
2019-02-04T15:13:09.650Z,4.30
2019-02-04T15:15:48.501Z,4.30
2019-02-04T15:18:18.659Z,4.30
2019-02-04T15:21:03.952Z,4.20
2019-02-04T15:23:36.862Z,4.20
2019-02-04T15:26:07.020Z,4.20
2019-02-04T15:28:37.245Z,4.20
2019-02-04T15:31:07.450Z,4.20
2019-02-04T15:33:37.642Z,4.20
2019-02-04T15:36:10.357Z,4.10
2019-02-04T15:38:46.422Z,4.10
2019-02-04T15:41:16.678Z,4.10
2019-02-04T15:43:47.026Z,4.10
2019-02-04T15:46:17.168Z,4.10
2019-02-04T15:48:50.246Z,4.10
2019-02-04T15:51:20.479Z,4.10
2019-02-04T15:53:49.319Z,4.00
2019-02-04T15:56:17.945Z,4.00
2019-02-04T15:58:46.852Z,4.00
2019-02-04T16:01:15.515Z,4.00
2019-02-04T16:03:44.291Z,4.00
2019-02-04T16:06:13.123Z,4.00
2019-02-04T16:08:41.815Z,4.00
2019-02-04T16:11:10.497Z,4.00
2019-02-04T16:13:39.200Z,4.00
2019-02-04T16:16:07.958Z,3.90
2019-02-04T16:18:36.946Z,3.90
2019-02-04T16:21:05.690Z,3.90
2019-02-04T16:23:34.602Z,3.90
2019-02-04T16:26:03.523Z,3.80
2019-02-04T16:28:32.167Z,3.80
2019-02-04T16:31:01.010Z,3.80
2019-02-04T16:33:29.750Z,3.80
2019-02-04T16:35:58.473Z,3.80
2019-02-04T16:38:27.247Z,3.80
2019-02-04T16:40:56.390Z,3.80
2019-02-04T16:43:25.020Z,3.80
2019-02-04T16:45:53.966Z,3.80
2019-02-04T16:48:22.642Z,3.80
2019-02-04T16:51:10.510Z,3.80
2019-02-04T16:53:21.658Z,3.80
2019-02-04T16:55:50.866Z,3.80
2019-02-04T16:58:19.620Z,3.80
2019-02-04T17:00:48.258Z,3.80
2019-02-04T17:03:18.880Z,3.80
2019-02-04T17:05:47.890Z,3.80
2019-02-04T17:08:16.803Z,3.80
2019-02-04T17:10:45.634Z,3.80
2019-02-04T17:13:14.390Z,3.80
2019-02-04T17:15:43.325Z,3.80
2019-02-04T17:18:11.928Z,3.70
2019-02-04T17:20:40.627Z,3.70
2019-02-04T17:23:09.270Z,3.70
2019-02-04T17:25:38.050Z,3.70
2019-02-04T17:28:07.178Z,3.70
2019-02-04T17:30:35.875Z,3.70
2019-02-04T17:33:06.074Z,3.70
2019-02-04T17:35:34.818Z,3.70
2019-02-04T17:38:04.243Z,3.70
2019-02-04T17:40:33.043Z,3.70
2019-02-04T17:43:01.857Z,3.70
2019-02-04T17:45:30.525Z,3.70
2019-02-04T17:47:59.298Z,3.70
2019-02-04T17:50:28.030Z,3.70
2019-02-04T17:52:56.801Z,3.70
2019-02-04T17:55:26.430Z,3.80
2019-02-04T17:57:55.582Z,3.80
2019-02-04T18:00:26.567Z,3.80
2019-02-04T18:02:55.296Z,3.80
2019-02-04T18:05:23.940Z,3.80
2019-02-04T18:07:52.706Z,3.80
2019-02-04T18:10:21.546Z,3.80
2019-02-04T18:12:50.507Z,3.70
2019-02-04T18:15:22.778Z,3.70
2019-02-04T18:17:51.719Z,3.70
2019-02-04T18:20:20.462Z,3.70
2019-02-04T18:22:49.179Z,3.70
2019-02-04T18:25:18.590Z,3.70
2019-02-04T18:27:47.431Z,3.70
2019-02-04T18:30:18.121Z,3.80
2019-02-04T18:32:47.011Z,3.80
2019-02-04T18:35:16.764Z,3.80
2019-02-04T18:37:45.463Z,3.80
2019-02-04T18:40:19.725Z,3.80
2019-02-04T18:42:48.789Z,3.80
2019-02-04T18:45:19.090Z,3.80
2019-02-04T18:47:47.845Z,3.80
2019-02-04T18:50:21.408Z,3.80
2019-02-04T18:52:51.538Z,3.70
2019-02-04T18:55:23.998Z,3.70
2019-02-04T18:57:53.678Z,3.70
2019-02-04T19:00:25.918Z,3.70
2019-02-04T19:02:55.941Z,3.70
2019-02-04T19:05:29.764Z,3.70
2019-02-04T19:07:59.452Z,3.60
2019-02-04T19:10:29.198Z,3.60
2019-02-04T19:12:58.815Z,3.60
2019-02-04T19:15:29.345Z,3.60
2019-02-04T19:18:11.155Z,3.60
2019-02-04T19:20:41.132Z,3.60
2019-02-04T19:23:10.963Z,3.50
2019-02-04T19:25:40.706Z,3.50
2019-02-04T19:28:10.467Z,3.50
2019-02-04T19:30:52.147Z,3.50
2019-02-04T19:33:21.870Z,3.50
2019-02-04T19:35:51.581Z,3.60
2019-02-04T19:38:22.843Z,3.60
2019-02-04T19:40:52.667Z,3.60
2019-02-04T19:43:22.195Z,3.60
2019-02-04T19:45:52.115Z,3.60
2019-02-04T19:48:21.842Z,3.70
2019-02-04T19:50:51.591Z,3.70
2019-02-04T19:53:25.403Z,3.70
2019-02-04T19:55:55.582Z,3.70
2019-02-04T19:58:25.398Z,3.70
2019-02-04T20:00:55.014Z,3.70
2019-02-04T20:03:24.709Z,3.70
2019-02-04T20:05:54.327Z,3.70
2019-02-04T20:08:24.139Z,3.70
2019-02-04T20:10:54.155Z,3.70
2019-02-04T20:13:27.897Z,3.70
2019-02-04T20:15:57.687Z,3.70
2019-02-04T20:18:27.531Z,3.70
2019-02-04T20:20:57.271Z,3.60
2019-02-04T20:23:27.167Z,3.70
2019-02-04T20:25:58.642Z,3.70
2019-02-04T20:28:28.265Z,3.70
2019-02-04T20:30:58.243Z,3.70
2019-02-04T20:33:27.947Z,3.80
2019-02-04T20:35:57.579Z,3.80
2019-02-04T20:38:27.506Z,3.80
2019-02-04T20:40:57.106Z,3.90
2019-02-04T20:43:26.780Z,3.90
2019-02-04T20:45:56.327Z,3.90
2019-02-04T20:48:25.992Z,3.80
2019-02-04T20:51:00.282Z,3.80
2019-02-04T20:53:30.166Z,3.80
2019-02-04T20:55:59.868Z,3.90
2019-02-04T20:58:29.751Z,3.90
2019-02-04T21:00:59.354Z,3.90
2019-02-04T21:03:28.994Z,3.90
2019-02-04T21:05:58.768Z,3.90
2019-02-04T21:08:28.500Z,3.90
2019-02-04T21:10:58.239Z,3.90
2019-02-04T21:13:27.974Z,3.90
2019-02-04T21:15:57.788Z,3.90
2019-02-04T21:18:27.485Z,3.90
2019-02-04T21:20:57.599Z,4.00
2019-02-04T21:23:27.262Z,4.00
2019-02-04T21:25:56.921Z,4.00
2019-02-04T21:28:26.574Z,4.00
2019-02-04T21:30:56.341Z,4.00
2019-02-04T21:33:26.116Z,4.00
2019-02-04T21:35:56.184Z,4.00
2019-02-04T21:38:25.782Z,4.00
2019-02-04T21:40:56.004Z,4.00
2019-02-04T21:43:25.631Z,4.00
2019-02-04T21:45:55.508Z,4.00
2019-02-04T21:48:25.194Z,4.00
2019-02-04T21:50:54.794Z,4.00
2019-02-04T21:53:24.502Z,4.00
2019-02-04T21:55:54.329Z,4.00
2019-02-04T21:58:23.898Z,4.00
2019-02-04T22:00:53.536Z,4.00
2019-02-04T22:03:23.110Z,4.00
2019-02-04T22:05:52.750Z,4.00
2019-02-04T22:08:22.341Z,4.00
2019-02-04T22:10:52.211Z,3.90
2019-02-04T22:13:21.881Z,3.90
2019-02-04T22:15:51.745Z,3.90
2019-02-04T22:18:21.262Z,3.90
2019-02-04T22:20:51.135Z,3.90
2019-02-04T22:23:20.878Z,3.90
2019-02-04T22:25:51.022Z,3.90
2019-02-04T22:28:20.618Z,3.90
2019-02-04T22:30:50.374Z,3.80
2019-02-04T22:33:20.036Z,3.80
2019-02-04T22:35:49.898Z,3.80
2019-02-04T22:38:19.501Z,3.80
2019-02-04T22:40:49.275Z,3.80
2019-02-04T22:43:18.803Z,3.80
2019-02-04T22:45:48.448Z,3.80
2019-02-04T22:48:18.115Z,3.70
2019-02-04T22:50:47.648Z,3.70
2019-02-04T22:53:17.319Z,3.70
2019-02-04T22:55:46.958Z,3.70
2019-02-04T22:58:16.529Z,3.70
2019-02-04T23:01:07.177Z,3.70
2019-02-04T23:03:36.918Z,3.70
2019-02-04T23:06:06.465Z,3.70
2019-02-04T23:08:36.226Z,3.70
2019-02-04T23:11:05.970Z,3.70
2019-02-04T23:13:35.898Z,3.60
2019-02-04T23:16:05.555Z,3.60
2019-02-04T23:18:35.179Z,3.60
2019-02-04T23:21:05.162Z,3.60
2019-02-04T23:23:34.802Z,3.60
2019-02-04T23:26:04.556Z,3.60
2019-02-04T23:28:34.194Z,3.60
2019-02-04T23:31:04.210Z,3.60
2019-02-04T23:33:34.464Z,3.60
2019-02-04T23:36:04.788Z,3.60
2019-02-04T23:38:34.282Z,3.60
2019-02-04T23:41:04.471Z,3.50
2019-02-04T23:43:34.182Z,3.50
2019-02-04T23:46:03.831Z,3.50
2019-02-04T23:48:33.389Z,3.40
2019-02-04T23:51:02.975Z,3.40
2019-02-04T23:53:32.471Z,3.40
2019-02-04T23:56:02.278Z,3.30
2019-02-04T23:58:31.933Z,3.30
